Time;durP1;ratioP1;P1;durP2;ratioP2;P2;SDS_P1;SDS_P2;PMS_P1;PMS_P2;Temp;Humidity;BMP_temperature;BMP_pressure;BME280_temperature;BME280_humidity;BME280_pressure;Samples;Min_cycle;Max_cycle;Signal;HPM_P1;HPM_P2
2023/02/27 00:00:59;;;;;;;27.37;10.37;;;;;;;-2.07;100.00;102946.94;4987183;28;20195;-70
2023/02/27 00:03:26;;;;;;;18.27;7.97;;;;;;;-2.07;100.00;102940.28;4989721;28;21040;-69
2023/02/27 00:05:51;;;;;;;13.57;7.27;;;;;;;-2.10;100.00;102939.97;4985503;28;20435;-69
2023/02/27 00:08:17;;;;;;;14.77;6.63;;;;;;;-2.12;100.00;102941.41;4993365;28;20446;-68
2023/02/27 00:10:42;;;;;;;16.77;6.73;;;;;;;-2.19;100.00;102940.63;4986530;28;20693;-70
2023/02/27 00:13:08;;;;;;;10.47;5.70;;;;;;;-2.19;100.00;102946.56;4991259;28;20215;-70
2023/02/27 00:15:37;;;;;;;9.63;5.83;;;;;;;-2.19;100.00;102946.56;4992836;28;20327;-70
2023/02/27 00:18:02;;;;;;;11.80;6.10;;;;;;;-2.20;100.00;102951.41;4983309;28;20450;-70
2023/02/27 00:20:28;;;;;;;11.03;5.23;;;;;;;-2.22;100.00;102947.84;4992764;28;20451;-69
2023/02/27 00:22:53;;;;;;;9.20;5.33;;;;;;;-2.25;100.00;102945.91;4987909;28;20327;-68
2023/02/27 00:25:19;;;;;;;12.60;5.13;;;;;;;-2.27;100.00;102952.38;4989355;28;20223;-70
2023/02/27 00:27:44;;;;;;;12.43;5.60;;;;;;;-2.31;100.00;102956.91;4989927;28;21084;-69
2023/02/27 00:30:12;;;;;;;11.37;5.47;;;;;;;-2.32;100.00;102950.13;4992821;28;20210;-68
2023/02/27 00:32:38;;;;;;;10.27;5.17;;;;;;;-2.39;100.00;102951.09;4988743;28;20218;-69
2023/02/27 00:35:05;;;;;;;10.50;5.47;;;;;;;-2.38;100.00;102952.00;4986749;28;20496;-69
2023/02/27 00:37:31;;;;;;;14.20;6.13;;;;;;;-2.41;100.00;102959.19;5002220;28;20200;-69
2023/02/27 00:39:56;;;;;;;11.80;5.47;;;;;;;-2.45;100.00;102960.50;4992271;28;20446;-69
2023/02/27 00:42:22;;;;;;;10.17;5.77;;;;;;;-2.43;100.00;102956.53;4990646;28;20569;-70
2023/02/27 00:44:47;;;;;;;8.47;4.90;;;;;;;-2.45;100.00;102965.53;4987020;28;20738;-69
2023/02/27 00:47:13;;;;;;;15.07;5.13;;;;;;;-2.45;100.00;102957.09;4985933;28;20192;-68
2023/02/27 00:49:38;;;;;;;11.70;5.60;;;;;;;-2.46;100.00;102960.34;4986821;28;20231;-68
2023/02/27 00:52:04;;;;;;;7.80;4.80;;;;;;;-2.47;100.00;102961.97;4990689;28;20207;-70
2023/02/27 00:54:29;;;;;;;11.03;5.10;;;;;;;-2.48;100.00;102952.66;4985190;28;20276;-70
2023/02/27 00:56:55;;;;;;;9.63;5.07;;;;;;;-2.50;100.00;102956.63;4990314;28;20195;-69
2023/02/27 00:59:20;;;;;;;9.47;4.57;;;;;;;-2.51;100.00;102956.47;4983867;28;20215;-70
2023/02/27 01:01:46;;;;;;;7.90;4.63;;;;;;;-2.53;100.00;102955.44;4997675;28;20207;-68
2023/02/27 01:04:12;;;;;;;9.43;5.30;;;;;;;-2.58;100.00;102951.56;4979889;28;20768;-70
2023/02/27 01:06:37;;;;;;;8.67;4.40;;;;;;;-2.58;100.00;102949.06;4992433;28;20205;-69
2023/02/27 01:09:03;;;;;;;7.23;4.67;;;;;;;-2.59;100.00;102949.75;4982866;28;20833;-70
2023/02/27 01:11:28;;;;;;;9.30;5.50;;;;;;;-2.59;100.00;102945.66;4987897;28;20235;-66
2023/02/27 01:13:54;;;;;;;7.67;5.20;;;;;;;-2.60;100.00;102941.38;4984143;28;20609;-67
2023/02/27 01:16:19;;;;;;;10.90;5.03;;;;;;;-2.62;100.00;102947.81;4988713;28;20964;-68
2023/02/27 01:18:45;;;;;;;9.73;5.20;;;;;;;-2.61;100.00;102938.69;4989363;28;20214;-69
2023/02/27 01:21:10;;;;;;;9.83;5.53;;;;;;;-2.64;100.00;102948.41;4986084;28;20665;-68
2023/02/27 01:23:36;;;;;;;9.77;5.33;;;;;;;-2.65;100.00;102945.03;4988407;28;20231;-69
2023/02/27 01:26:01;;;;;;;12.13;5.33;;;;;;;-2.66;100.00;102938.19;4991611;28;20195;-69
2023/02/27 01:28:27;;;;;;;9.50;5.60;;;;;;;-2.71;100.00;102930.94;4988574;28;20196;-69
2023/02/27 01:30:52;;;;;;;10.17;5.47;;;;;;;-2.74;100.00;102934.03;4985504;28;20200;-70
2023/02/27 01:33:18;;;;;;;10.50;5.67;;;;;;;-2.76;100.00;102930.44;4991999;28;20306;-67
2023/02/27 01:35:43;;;;;;;11.03;5.50;;;;;;;-2.77;100.00;102930.28;4989602;28;20192;-69
2023/02/27 01:38:10;;;;;;;7.30;5.33;;;;;;;-2.78;100.00;102926.91;4992425;28;20246;-69
2023/02/27 01:40:38;;;;;;;9.97;5.07;;;;;;;-2.81;100.00;102926.56;4992360;28;20467;-69
2023/02/27 01:43:04;;;;;;;9.67;5.70;;;;;;;-2.83;100.00;102917.13;4990721;28;20689;-68
2023/02/27 01:45:38;;;;;;;7.50;5.10;;;;;;;-2.86;100.00;102912.69;4988979;28;20652;-69
2023/02/27 01:48:06;;;;;;;8.53;5.40;;;;;;;-2.87;100.00;102915.03;4991242;28;20607;-69
2023/02/27 01:50:34;;;;;;;9.27;5.13;;;;;;;-2.89;100.00;102911.47;4987614;28;20472;-68
2023/02/27 01:53:00;;;;;;;9.07;5.37;;;;;;;-2.92;100.00;102924.56;4990476;28;20477;-69
2023/02/27 01:55:28;;;;;;;10.33;5.83;;;;;;;-2.96;100.00;102919.97;4989861;28;20451;-67
2023/02/27 01:57:54;;;;;;;11.53;6.40;;;;;;;-2.96;100.00;102921.56;4991235;28;20446;-69
2023/02/27 02:00:21;;;;;;;9.03;5.73;;;;;;;-2.97;100.00;102925.72;4981646;28;20530;-69
2023/02/27 02:02:54;;;;;;;8.40;5.43;;;;;;;-2.94;100.00;102930.16;4987635;28;20457;-68
2023/02/27 02:05:20;;;;;;;11.03;6.20;;;;;;;-2.95;100.00;102933.38;4989314;28;20447;-70
2023/02/27 02:07:47;;;;;;;12.03;6.70;;;;;;;-2.95;100.00;102935.91;4992372;28;20449;-69
2023/02/27 02:10:15;;;;;;;10.93;6.00;;;;;;;-2.99;100.00;102933.78;4989985;28;20526;-69
2023/02/27 02:12:40;;;;;;;7.73;6.23;;;;;;;-2.99;100.00;102938.78;4993476;28;21045;-69
2023/02/27 02:15:08;;;;;;;12.83;5.80;;;;;;;-3.02;100.00;102940.97;4980065;28;20442;-68
2023/02/27 02:18:06;;;;;;;9.47;6.47;;;;;;;-3.06;100.00;102941.38;4991477;28;20446;-69
2023/02/27 02:20:50;;;;;;;11.00;6.93;;;;;;;-3.07;100.00;102943.00;4988388;28;20498;-69
2023/02/27 02:23:37;;;;;;;11.20;6.10;;;;;;;-3.10;100.00;102944.25;4987768;28;20483;-68
2023/02/27 02:26:17;;;;;;;10.57;6.43;;;;;;;-3.08;100.00;102947.84;4991510;28;20458;-70
2023/02/27 02:29:07;;;;;;;13.87;6.67;;;;;;;-3.09;100.00;102954.44;4990667;28;20442;-68
2023/02/27 02:31:54;;;;;;;10.30;6.20;;;;;;;-3.10;100.00;102954.28;4988660;28;20844;-69
2023/02/27 02:35:05;;;;;;;13.53;6.30;;;;;;;-3.11;100.00;102947.50;4986625;28;20917;-69
2023/02/27 02:37:36;;;;;;;9.70;6.03;;;;;;;-3.09;100.00;102946.06;4993243;28;20496;-67
2023/02/27 02:40:03;;;;;;;9.53;6.10;;;;;;;-3.12;100.00;102941.59;4992762;28;20492;-68
2023/02/27 02:42:42;;;;;;;13.53;6.43;;;;;;;-3.14;100.00;102940.56;4989616;28;20462;-69
2023/02/27 02:45:44;;;;;;;11.17;6.47;;;;;;;-3.14;100.00;102937.16;4992379;28;20486;-69
2023/02/27 02:48:19;;;;;;;9.43;6.17;;;;;;;-3.15;100.00;102941.28;4987279;28;20475;-69
2023/02/27 02:51:18;;;;;;;12.97;6.60;;;;;;;-3.17;100.00;102939.34;4987322;28;20475;-67
2023/02/27 02:53:52;;;;;;;11.63;5.97;;;;;;;-3.21;100.00;102938.13;4991854;28;20791;-69
2023/02/27 02:56:28;;;;;;;11.33;6.70;;;;;;;-3.22;100.00;102942.97;4990207;28;20451;-68
2023/02/27 02:59:23;;;;;;;9.17;5.77;;;;;;;-3.23;100.00;102943.66;4991466;28;20465;-69
2023/02/27 03:01:54;;;;;;;12.40;7.17;;;;;;;-3.24;100.00;102947.81;4993990;28;20469;-67
2023/02/27 03:04:30;;;;;;;9.07;6.37;;;;;;;-3.21;100.00;102942.25;4985469;28;20501;-70
2023/02/27 03:07:03;;;;;;;9.37;6.37;;;;;;;-3.20;100.00;102944.91;4967321;28;20462;-69
2023/02/27 03:09:49;;;;;;;11.17;5.97;;;;;;;-3.20;100.00;102944.00;4992568;28;20451;-70
2023/02/27 03:12:20;;;;;;;9.53;5.73;;;;;;;-3.19;100.00;102945.78;4989791;28;20575;-69
2023/02/27 03:14:58;;;;;;;13.73;6.20;;;;;;;-3.20;100.00;102939.00;4985752;28;20768;-70
2023/02/27 03:17:37;;;;;;;16.43;6.63;;;;;;;-3.22;100.00;102946.34;4985166;28;20450;-67
2023/02/27 03:20:07;;;;;;;10.80;5.70;;;;;;;-3.24;100.00;102939.41;5002145;28;20442;-68
2023/02/27 03:22:44;;;;;;;9.70;5.40;;;;;;;-3.24;100.00;102942.81;4995502;28;20471;-69
2023/02/27 03:25:12;;;;;;;9.30;5.93;;;;;;;-3.26;100.00;102948.38;4991450;28;20475;-69
2023/02/27 03:27:47;;;;;;;10.43;6.13;;;;;;;-3.26;100.00;102951.75;4992789;28;20449;-70
2023/02/27 03:30:27;;;;;;;10.53;5.53;;;;;;;-3.25;100.00;102963.56;4990667;28;20446;-68
2023/02/27 03:32:56;;;;;;;10.60;5.80;;;;;;;-3.22;100.00;102958.00;4987242;28;20513;-67
2023/02/27 03:35:30;;;;;;;10.33;5.47;;;;;;;-3.25;100.00;102963.56;4989378;28;20493;-68
2023/02/27 03:38:10;;;;;;;11.03;5.73;;;;;;;-3.26;100.00;102963.41;4990752;28;20799;-68
2023/02/27 03:40:45;;;;;;;12.27;5.40;;;;;;;-3.29;100.00;102956.44;4992817;28;20953;-69
2023/02/27 03:43:21;;;;;;;14.23;5.30;;;;;;;-3.31;100.00;102959.50;4975251;28;21053;-69
2023/02/27 03:46:11;;;;;;;9.57;5.07;;;;;;;-3.36;100.00;102956.50;4987627;28;20526;-69
2023/02/27 03:48:43;;;;;;;9.97;5.17;;;;;;;-3.38;100.00;102962.97;4975704;28;20472;-69
2023/02/27 03:51:13;;;;;;;9.43;4.60;;;;;;;-3.39;100.00;102962.78;4991167;28;20458;-70
2023/02/27 03:53:56;;;;;;;8.90;4.97;;;;;;;-3.42;100.00;102955.84;4990304;28;20442;-69
2023/02/27 03:56:29;;;;;;;10.03;4.80;;;;;;;-3.41;100.00;102952.63;4973840;28;20450;-67
2023/02/27 03:58:57;;;;;;;8.90;4.80;;;;;;;-3.41;100.00;102964.25;4972356;28;20943;-69
2023/02/27 04:01:23;;;;;;;8.83;4.77;;;;;;;-3.40;100.00;102971.03;4969333;28;20967;-69
2023/02/27 04:04:03;;;;;;;7.90;4.77;;;;;;;-3.42;100.00;102968.38;4993749;28;20486;-69
2023/02/27 04:10:03;;;;;;;8.50;5.10;;;;;;;-3.42;100.00;102985.88;4990977;28;20825;-69
2023/02/27 04:12:50;;;;;;;8.97;4.70;;;;;;;-3.42;100.00;102984.97;4989365;28;20616;-67
2023/02/27 04:15:34;;;;;;;9.73;4.67;;;;;;;-3.43;100.00;102989.13;4984918;28;20455;-69
2023/02/27 04:18:42;;;;;;;8.50;4.27;;;;;;;-3.45;100.00;102990.53;4987002;28;21014;-70
2023/02/27 04:21:32;;;;;;;7.90;4.50;;;;;;;-3.48;100.00;102986.84;4991468;28;20436;-69
2023/02/27 04:24:20;;;;;;;9.83;4.93;;;;;;;-3.49;100.00;102988.44;4991255;28;21049;-69
2023/02/27 04:27:11;;;;;;;8.87;4.77;;;;;;;-3.51;100.00;102987.38;4986610;28;20461;-69
2023/02/27 04:30:08;;;;;;;7.17;4.63;;;;;;;-3.51;100.00;102999.00;4977919;28;20500;-69
2023/02/27 04:32:42;;;;;;;9.87;4.73;;;;;;;-3.53;100.00;102995.47;4986483;28;20554;-69
2023/02/27 04:35:14;;;;;;;9.57;4.87;;;;;;;-3.58;100.00;103004.94;4992056;28;20542;-69
2023/02/27 04:37:54;;;;;;;8.77;4.50;;;;;;;-3.58;100.00;102999.06;4989252;28;20489;-70
2023/02/27 04:40:27;;;;;;;9.23;4.93;;;;;;;-3.56;100.00;103008.53;4990865;28;20437;-68
2023/02/27 04:42:56;;;;;;;9.33;4.60;;;;;;;-3.62;100.00;103000.34;4985735;28;20502;-68
2023/02/27 04:45:25;;;;;;;8.70;4.93;;;;;;;-3.62;100.00;103009.47;4985103;28;20461;-69
2023/02/27 04:47:57;;;;;;;10.67;5.03;;;;;;;-3.65;100.00;103015.03;4988200;28;20463;-70
2023/02/27 04:50:34;;;;;;;10.30;4.83;;;;;;;-3.66;100.00;103017.34;4987210;28;20960;-67
2023/02/27 04:53:08;;;;;;;7.90;4.60;;;;;;;-3.69;100.00;103020.41;4984877;28;20470;-68
2023/02/27 04:55:41;;;;;;;7.57;4.73;;;;;;;-3.67;100.00;103018.09;4994300;28;20546;-69
2023/02/27 04:59:08;;;;;;;8.80;4.90;;;;;;;-3.69;100.00;103027.91;4986770;28;21205;-69
2023/02/27 05:01:39;;;;;;;8.17;4.47;;;;;;;-3.69;100.00;103022.91;4964091;28;20511;-69
2023/02/27 05:04:11;;;;;;;9.07;5.10;;;;;;;-3.74;100.00;103019.00;4962671;28;20610;-68
2023/02/27 05:06:40;;;;;;;9.20;5.20;;;;;;;-3.73;100.00;103019.91;4979632;28;20462;-69
2023/02/27 05:09:15;;;;;;;11.00;5.43;;;;;;;-3.71;100.00;103021.88;4990981;28;20439;-67
2023/02/27 05:12:31;;;;;;;9.20;4.70;;;;;;;-3.69;100.00;103022.91;4991590;28;20480;-68
2023/02/27 05:15:06;;;;;;;12.70;5.07;;;;;;;-3.60;100.00;103020.50;4979429;28;20466;-69
2023/02/27 05:17:37;;;;;;;9.40;5.10;;;;;;;-3.52;100.00;103032.25;4982680;28;20593;-68
2023/02/27 05:20:07;;;;;;;8.70;5.20;;;;;;;-3.50;100.00;103025.84;4992672;28;20458;-70
2023/02/27 05:23:00;;;;;;;9.13;5.03;;;;;;;-3.47;100.00;103026.16;4987578;28;20994;-69
2023/02/27 05:25:32;;;;;;;6.63;4.67;;;;;;;-3.45;100.00;103029.72;4988203;28;20542;-68
2023/02/27 05:28:05;;;;;;;9.73;5.30;;;;;;;-3.44;100.00;103032.41;4985925;28;20443;-70
2023/02/27 05:31:00;;;;;;;8.73;5.13;;;;;;;-3.42;100.00;103035.94;4988294;28;20458;-69
2023/02/27 05:33:35;;;;;;;10.57;6.30;;;;;;;-3.42;100.00;103035.03;4990469;28;20509;-69
2023/02/27 05:36:14;;;;;;;10.13;4.93;;;;;;;-3.42;100.00;103033.44;4988395;28;20446;-68
2023/02/27 05:38:48;;;;;;;10.60;5.97;;;;;;;-3.41;100.00;103037.72;4990021;28;20465;-69
2023/02/27 05:41:22;;;;;;;12.33;6.03;;;;;;;-3.40;100.00;103033.63;4987172;28;20447;-69
2023/02/27 05:44:01;;;;;;;9.57;5.23;;;;;;;-3.39;100.00;103035.38;4989056;28;20470;-69
2023/02/27 05:46:31;;;;;;;10.30;5.70;;;;;;;-3.41;100.00;103031.84;4990841;28;20466;-67
2023/02/27 05:49:01;;;;;;;11.00;5.47;;;;;;;-3.40;100.00;103037.00;4984802;28;20466;-68
2023/02/27 05:51:31;;;;;;;11.53;5.77;;;;;;;-3.38;100.00;103034.66;4979762;28;20979;-67
2023/02/27 05:54:02;;;;;;;10.13;5.93;;;;;;;-3.37;100.00;103039.84;4986207;28;20441;-68
2023/02/27 05:56:31;;;;;;;12.33;6.63;;;;;;;-3.35;100.00;103045.03;4993575;28;20443;-68
2023/02/27 05:59:05;;;;;;;11.57;5.97;;;;;;;-3.34;100.00;103042.69;4995657;28;20457;-70
2023/02/27 06:01:31;;;;;;;12.70;6.20;;;;;;;-3.31;100.00;103035.50;4996115;28;20469;-69
2023/02/27 06:03:57;;;;;;;11.17;6.80;;;;;;;-3.29;100.00;103040.66;4992600;28;20537;-68
2023/02/27 06:06:23;;;;;;;11.17;6.13;;;;;;;-3.27;100.00;103039.25;4996311;28;20960;-69
2023/02/27 06:08:48;;;;;;;10.53;6.20;;;;;;;-3.26;100.00;103036.00;4995600;28;20697;-70
2023/02/27 06:11:14;;;;;;;12.23;6.53;;;;;;;-3.24;100.00;103042.97;4997724;28;20662;-68
2023/02/27 06:13:39;;;;;;;12.50;6.20;;;;;;;-3.24;100.00;103050.47;4996303;28;20258;-69
2023/02/27 06:16:08;;;;;;;9.17;6.10;;;;;;;-3.24;100.00;103052.06;4993779;28;21117;-69
2023/02/27 06:18:33;;;;;;;16.20;5.80;;;;;;;-3.23;100.00;103052.25;4993148;28;20203;-69
2023/02/27 06:20:59;;;;;;;12.40;6.10;;;;;;;-3.22;100.00;103064.03;4993837;28;20508;-69
2023/02/27 06:23:24;;;;;;;12.63;6.47;;;;;;;-3.20;100.00;103057.59;4996633;28;20227;-69
2023/02/27 06:25:49;;;;;;;14.13;6.13;;;;;;;-3.18;100.00;103068.66;4994013;28;20194;-69
2023/02/27 06:28:15;;;;;;;11.13;6.17;;;;;;;-3.20;100.00;103060.09;4994163;28;20235;-68
2023/02/27 06:30:40;;;;;;;15.10;6.63;;;;;;;-3.15;100.00;103074.00;4993963;28;20179;-70
2023/02/27 06:33:06;;;;;;;10.27;6.33;;;;;;;-3.13;100.00;103069.19;4993425;28;20561;-68
2023/02/27 06:35:31;;;;;;;12.23;6.77;;;;;;;-3.12;100.00;103073.47;4992339;28;20198;-68
2023/02/27 06:37:57;;;;;;;13.80;7.20;;;;;;;-3.11;100.00;103073.63;4995820;28;20192;-69
2023/02/27 06:40:23;;;;;;;10.43;5.73;;;;;;;-3.11;100.00;103066.13;4987765;28;20278;-68
2023/02/27 06:42:48;;;;;;;15.03;6.33;;;;;;;-3.07;100.00;103075.75;4994527;28;20208;-70
2023/02/27 06:45:15;;;;;;;13.53;6.73;;;;;;;-3.01;100.00;103073.00;4991040;28;20228;-69
2023/02/27 06:47:41;;;;;;;16.10;6.47;;;;;;;-2.96;100.00;103066.88;4996621;28;20212;-68
2023/02/27 06:50:10;;;;;;;14.43;7.50;;;;;;;-2.91;100.00;103068.25;4988796;28;20490;-68
2023/02/27 06:52:36;;;;;;;15.40;7.07;;;;;;;-2.81;100.00;103083.56;4995096;28;20540;-68
2023/02/27 06:55:03;;;;;;;17.33;7.63;;;;;;;-2.75;100.00;103081.72;4990417;28;20474;-69
2023/02/27 06:57:29;;;;;;;13.30;6.63;;;;;;;-2.69;100.00;103084.88;4998329;28;20442;-69
2023/02/27 06:59:54;;;;;;;13.70;6.80;;;;;;;-2.66;100.00;103087.72;4991208;28;20857;-68
2023/02/27 07:02:20;;;;;;;14.10;7.40;;;;;;;-2.63;100.00;103088.03;4995901;28;20219;-68
2023/02/27 07:04:46;;;;;;;13.07;6.67;;;;;;;-2.61;100.00;103091.59;4994505;28;20243;-69
2023/02/27 07:07:11;;;;;;;14.33;6.90;;;;;;;-2.57;100.00;103087.06;4991383;28;20875;-67
2023/02/27 07:09:37;;;;;;;14.37;6.70;;;;;;;-2.50;100.00;103091.13;4992547;28;20661;-68
2023/02/27 07:12:03;;;;;;;10.63;6.50;;;;;;;-2.43;100.00;103084.41;4996523;28;20219;-69
2023/02/27 07:14:29;;;;;;;13.83;6.93;;;;;;;-2.30;100.00;103090.00;4993520;28;20190;-68
2023/02/27 07:16:54;;;;;;;13.40;6.93;;;;;;;-2.16;100.00;103077.28;4991805;28;20441;-70
2023/02/27 07:19:21;;;;;;;12.57;6.03;;;;;;;-2.01;100.00;103080.53;4993330;28;20270;-68
2023/02/27 07:21:47;;;;;;;13.87;7.07;;;;;;;-1.76;100.00;103085.75;4991332;28;20630;-69
2023/02/27 07:24:12;;;;;;;13.50;7.60;;;;;;;-1.59;100.00;103087.47;4992359;28;20560;-69
2023/02/27 07:26:38;;;;;;;18.23;8.63;;;;;;;-1.44;100.00;103079.91;4990902;28;20238;-67
2023/02/27 07:29:04;;;;;;;14.57;7.37;;;;;;;-1.30;100.00;103091.34;4989531;28;20200;-70
2023/02/27 07:31:30;;;;;;;15.40;8.17;;;;;;;-1.16;100.00;103086.09;4991304;28;20196;-68
2023/02/27 07:33:55;;;;;;;16.73;7.57;;;;;;;-0.95;100.00;103085.78;4987137;28;20195;-69
2023/02/27 07:36:21;;;;;;;16.30;7.63;;;;;;;-0.77;100.00;103091.00;4988840;28;20208;-69
2023/02/27 07:38:46;;;;;;;15.97;7.83;;;;;;;-0.56;100.00;103092.25;4998107;28;20205;-68
2023/02/27 07:41:12;;;;;;;12.77;7.30;;;;;;;-0.35;100.00;103092.75;4989349;28;20192;-70
2023/02/27 07:43:38;;;;;;;14.43;7.20;;;;;;;-0.17;100.00;103096.19;4998017;28;20219;-70
2023/02/27 07:46:03;;;;;;;16.77;6.53;;;;;;;-0.16;100.00;103090.41;4987420;28;20191;-70
2023/02/27 07:48:30;;;;;;;17.20;6.33;;;;;;;-0.18;100.00;103092.75;4992699;28;20198;-69
2023/02/27 07:50:56;;;;;;;14.77;6.83;;;;;;;-0.14;100.00;103094.84;4989892;28;20199;-70
2023/02/27 07:53:21;;;;;;;15.93;7.20;;;;;;;-0.04;100.00;103100.03;4992636;28;20693;-70
2023/02/27 07:55:47;;;;;;;13.70;6.37;;;;;;;0.02;100.00;103092.19;4988955;28;20223;-67
2023/02/27 07:58:12;;;;;;;14.10;6.77;;;;;;;0.05;100.00;103100.06;4996586;28;20188;-70
2023/02/27 08:00:38;;;;;;;13.73;6.87;;;;;;;0.04;100.00;103100.78;4992634;28;20559;-70
2023/02/27 08:03:04;;;;;;;12.13;6.87;;;;;;;0.10;100.00;103109.81;4991287;28;20216;-69
2023/02/27 08:05:29;;;;;;;15.27;8.53;;;;;;;0.47;100.00;103110.84;4993046;28;20187;-68
2023/02/27 08:07:55;;;;;;;16.60;7.53;;;;;;;0.79;100.00;103114.78;4992888;28;20838;-69
2023/02/27 08:10:20;;;;;;;20.27;8.80;;;;;;;1.09;100.00;103105.91;4988041;28;20286;-70
2023/02/27 08:12:46;;;;;;;14.07;8.50;;;;;;;1.40;100.00;103114.69;4989333;28;20206;-68
2023/02/27 08:15:11;;;;;;;18.63;8.00;;;;;;;1.67;100.00;103113.06;4990107;28;20184;-69
2023/02/27 08:17:37;;;;;;;15.53;7.63;;;;;;;1.91;100.00;103110.22;4988539;28;20202;-70
2023/02/27 08:20:04;;;;;;;11.07;7.33;;;;;;;2.05;100.00;103114.88;4990540;28;20666;-70
2023/02/27 08:22:29;;;;;;;16.73;7.73;;;;;;;2.31;100.00;103109.59;4988600;28;20613;-69
2023/02/27 08:24:55;;;;;;;13.53;8.80;;;;;;;2.52;100.00;103107.31;4995753;28;20314;-70
2023/02/27 08:27:20;;;;;;;12.60;7.93;;;;;;;2.64;100.00;103110.91;4985019;28;20326;-70
2023/02/27 08:29:46;;;;;;;15.97;8.27;;;;;;;2.83;100.00;103109.22;4997119;28;20198;-70
2023/02/27 08:32:11;;;;;;;15.40;7.73;;;;;;;3.14;100.00;103111.09;4968980;28;20590;-69
2023/02/27 08:34:37;;;;;;;12.60;6.17;;;;;;;3.46;100.00;103109.66;4997425;28;20234;-70
2023/02/27 08:37:02;;;;;;;10.93;5.93;;;;;;;3.45;100.00;103110.38;4981144;28;20184;-66
2023/02/27 08:39:28;;;;;;;21.17;12.83;;;;;;;3.76;100.00;103112.19;4996755;28;20764;-70
2023/02/27 08:41:53;;;;;;;13.00;6.40;;;;;;;3.94;100.00;103112.78;4988292;28;20234;-70
2023/02/27 08:44:19;;;;;;;9.10;5.50;;;;;;;4.15;100.00;103106.97;4994255;28;20343;-68
2023/02/27 08:46:45;;;;;;;8.73;4.60;;;;;;;4.57;100.00;103102.78;4986457;28;20190;-68
2023/02/27 08:49:10;;;;;;;11.50;4.77;;;;;;;4.86;100.00;103108.50;4987352;28;20720;-70
2023/02/27 08:51:36;;;;;;;21.90;10.77;;;;;;;4.99;100.00;103114.66;4990803;28;20590;-70
2023/02/27 08:54:01;;;;;;;10.53;3.87;;;;;;;5.34;100.00;103107.22;4993939;28;20184;-69
2023/02/27 08:56:27;;;;;;;18.87;9.93;;;;;;;5.77;100.00;103109.69;4991593;28;20642;-69
2023/02/27 08:58:53;;;;;;;9.00;4.10;;;;;;;6.23;100.00;103107.25;4986896;28;20800;-69
2023/02/27 09:01:19;;;;;;;10.60;4.10;;;;;;;6.65;100.00;103112.88;4990408;28;20241;-68
2023/02/27 09:03:45;;;;;;;12.37;4.27;;;;;;;7.04;100.00;103119.13;4994402;28;20680;-68
2023/02/27 09:06:11;;;;;;;8.40;3.83;;;;;;;7.53;100.00;103115.75;4990406;28;20739;-71
2023/02/27 09:08:37;;;;;;;5.87;3.77;;;;;;;7.88;100.00;103108.81;4988427;28;20194;-68
2023/02/27 09:11:03;;;;;;;13.77;7.50;;;;;;;8.25;100.00;103106.22;4987299;28;20187;-69
2023/02/27 09:13:28;;;;;;;9.50;5.77;;;;;;;8.53;100.00;103103.78;4986978;28;20220;-70
2023/02/27 09:15:54;;;;;;;11.50;5.67;;;;;;;8.96;100.00;103106.59;4994155;28;20199;-68
2023/02/27 09:18:20;;;;;;;7.57;4.20;;;;;;;11.08;100.00;103096.94;4983907;28;20243;-68
2023/02/27 09:20:48;;;;;;;6.68;3.42;;;;;;;14.33;65.96;103081.63;4990344;28;20233;-70
2023/02/27 09:23:14;;;;;;;11.68;3.63;;;;;;;17.31;49.12;103068.75;4984111;28;20235;-70
2023/02/27 09:25:40;;;;;;;7.40;3.45;;;;;;;19.26;43.33;103059.69;4995451;28;20199;-71
2023/02/27 09:28:05;;;;;;;6.50;3.20;;;;;;;19.37;39.49;103060.75;4984574;28;20817;-70
2023/02/27 09:30:32;;;;;;;6.05;2.92;;;;;;;20.60;37.79;103065.47;4987421;28;20661;-70
2023/02/27 09:32:57;;;;;;;6.90;3.28;;;;;;;21.00;35.25;103055.63;4986403;28;20303;-72
2023/02/27 09:35:23;;;;;;;4.10;3.65;;;;;;;22.24;34.14;103052.50;4994128;28;20788;-71
2023/02/27 09:37:48;;;;;;;6.22;3.03;;;;;;;23.06;32.18;103051.28;4986098;28;20223;-72
2023/02/27 09:40:23;;;;;;;6.30;3.00;;;;;;;22.55;32.26;103051.88;4998325;28;20553;-71
2023/02/27 09:42:50;;;;;;;4.85;2.67;;;;;;;24.05;30.70;103041.88;4990117;28;20298;-67
2023/02/27 09:45:29;;;;;;;5.13;2.40;;;;;;;23.47;29.75;103040.06;4993403;28;20239;-69
2023/02/27 09:47:59;;;;;;;6.32;2.60;;;;;;;24.45;29.47;103037.44;4987259;28;20655;-71
2023/02/27 09:50:43;;;;;;;3.70;2.20;;;;;;;24.58;28.92;103041.78;4998016;28;20202;-69
2023/02/27 09:53:17;;;;;;;6.13;2.75;;;;;;;25.38;27.13;103037.09;4968586;28;20231;-69
2023/02/27 09:55:44;;;;;;;6.35;2.78;;;;;;;26.09;26.99;103040.03;4996543;28;20198;-70
2023/02/27 09:58:23;;;;;;;4.75;2.30;;;;;;;26.08;26.86;103038.31;4990405;28;20214;-69
2023/02/27 10:00:55;;;;;;;3.85;2.13;;;;;;;26.02;26.89;103041.00;4992549;28;20201;-71
2023/02/27 10:03:30;;;;;;;14.05;3.05;;;;;;;26.62;26.39;103043.03;4987821;28;20291;-69
2023/02/27 10:06:17;;;;;;;8.13;2.65;;;;;;;26.46;26.13;103049.28;4993386;28;20209;-69
2023/02/27 10:09:24;;;;;;;5.72;2.58;;;;;;;27.43;25.18;103034.94;4988678;28;20230;-69
2023/02/27 10:12:01;;;;;;;4.50;2.40;;;;;;;27.52;25.31;103042.69;4993046;28;20230;-68
2023/02/27 10:14:50;;;;;;;6.53;2.80;;;;;;;27.67;24.52;103041.59;5002413;28;20279;-69
2023/02/27 10:17:34;;;;;;;5.60;2.33;;;;;;;27.91;25.01;103039.44;4987023;28;20287;-67
2023/02/27 10:20:03;;;;;;;5.30;2.58;;;;;;;28.20;24.33;103039.81;4989059;28;20210;-69
2023/02/27 10:22:34;;;;;;;3.80;2.40;;;;;;;27.27;24.51;103040.44;4992529;28;20690;-68
2023/02/27 10:25:06;;;;;;;5.25;2.63;;;;;;;28.54;23.36;103045.31;4985064;28;20253;-68
2023/02/27 10:27:32;;;;;;;5.25;2.13;;;;;;;27.79;23.61;103046.63;4992477;28;20282;-69
2023/02/27 10:30:17;;;;;;;4.43;2.20;;;;;;;27.79;23.31;103044.00;4989105;28;20194;-68
2023/02/27 10:32:45;;;;;;;4.88;2.33;;;;;;;28.64;23.35;103050.38;4993908;28;20214;-67
2023/02/27 10:35:35;;;;;;;3.40;2.30;;;;;;;28.21;23.56;103053.84;4993767;28;20195;-67
2023/02/27 10:38:10;;;;;;;3.88;2.30;;;;;;;27.02;23.76;103060.91;4988777;28;20188;-68
2023/02/27 10:40:38;;;;;;;5.22;2.50;;;;;;;27.51;23.92;103056.75;4993484;28;20206;-70
2023/02/27 10:43:04;;;;;;;8.90;3.10;;;;;;;26.18;25.17;103053.97;4983086;28;20224;-71
2023/02/27 10:45:30;;;;;;;6.57;2.75;;;;;;;24.16;26.91;103063.69;4986262;28;20342;-71
2023/02/27 10:47:56;;;;;;;6.80;2.43;;;;;;;19.53;32.03;103086.22;4987598;28;20204;-70
2023/02/27 10:50:21;;;;;;;5.97;2.70;;;;;;;15.94;37.99;103102.34;4986669;28;20199;-70
2023/02/27 10:52:52;;;;;;;5.67;2.90;;;;;;;16.27;39.20;103108.66;4995619;28;20599;-69
2023/02/27 10:55:23;;;;;;;10.73;3.50;;;;;;;16.24;38.55;103105.97;4986138;28;20275;-70
2023/02/27 10:57:49;;;;;;;4.27;2.90;;;;;;;24.68;28.24;103067.97;4994465;28;20196;-71
2023/02/27 11:00:39;;;;;;;3.95;2.10;;;;;;;26.39;25.29;103064.25;4983458;28;20196;-71
2023/02/27 11:03:05;;;;;;;5.38;2.83;;;;;;;28.55;23.06;103061.13;4987072;28;20212;-71
2023/02/27 11:05:34;;;;;;;5.40;2.50;;;;;;;26.05;24.50;103075.97;4984571;28;20359;-71
2023/02/27 11:08:23;;;;;;;7.53;2.90;;;;;;;28.22;22.96;103066.13;4990813;28;20219;-70
2023/02/27 11:10:55;;;;;;;6.90;2.17;;;;;;;28.42;22.77;103071.94;4985386;28;20199;-71
2023/02/27 11:13:24;;;;;;;5.95;2.38;;;;;;;26.72;23.57;103068.31;4986512;28;20220;-72
2023/02/27 11:16:16;;;;;;;7.53;4.30;;;;;;;25.24;26.66;103081.72;4983702;28;20202;-70
2023/02/27 11:18:47;;;;;;;3.60;1.92;;;;;;;27.94;23.26;103073.63;4987510;28;20196;-71
2023/02/27 11:21:27;;;;;;;3.83;2.40;;;;;;;25.40;23.76;103083.44;4983307;28;20196;-71
2023/02/27 11:24:02;;;;;;;4.05;2.00;;;;;;;19.51;30.87;103108.69;4983986;28;20211;-70
2023/02/27 11:26:35;;;;;;;3.43;2.07;;;;;;;18.38;33.19;103115.69;4984811;28;20245;-69
2023/02/27 11:29:13;;;;;;;4.37;2.00;;;;;;;25.15;26.68;103081.81;4986328;28;20188;-67
2023/02/27 11:31:45;;;;;;;3.45;2.20;;;;;;;28.41;22.49;103072.84;4985609;28;20247;-67
2023/02/27 11:34:20;;;;;;;3.33;1.90;;;;;;;27.67;22.04;103071.41;4983907;28;20187;-67
2023/02/27 11:36:47;;;;;;;3.92;2.28;;;;;;;29.25;20.91;103066.69;4986195;28;20688;-68